Time;durP1;ratioP1;P1;durP2;ratioP2;P2;SDS_P1;SDS_P2;PMS_P1;PMS_P2;Temp;Humidity;BMP_temperature;BMP_pressure;BME280_temperature;BME280_humidity;BME280_pressure;Samples;Min_cycle;Max_cycle;Signal;HPM_P1;HPM_P2
2021/07/29 00:02:27;;;;;;;5.68;2.58;;;;;;;16.37;78.16;100826.00;4970675;28;20034;-71
2021/07/29 00:04:53;;;;;;;6.20;2.78;;;;;;;16.38;78.24;100822.34;4986868;28;20364;-71
2021/07/29 00:07:18;;;;;;;4.60;2.92;;;;;;;16.38;78.08;100822.34;4987612;28;20145;-70
2021/07/29 00:09:45;;;;;;;4.88;2.95;;;;;;;16.43;77.88;100816.56;4989464;28;20034;-71
2021/07/29 00:12:11;;;;;;;6.30;2.50;;;;;;;16.40;78.45;100815.13;4993056;28;20152;-70
2021/07/29 00:14:36;;;;;;;4.82;3.22;;;;;;;16.38;77.17;100824.97;4994651;28;20062;-71
2021/07/29 00:17:04;;;;;;;3.28;2.22;;;;;;;16.36;78.50;100816.50;4989076;28;20069;-70
2021/07/29 00:19:29;;;;;;;7.85;3.38;;;;;;;16.24;79.42;100800.56;4996098;28;20029;-70
2021/07/29 00:21:55;;;;;;;6.90;3.10;;;;;;;16.10;78.97;100799.66;4990105;28;20081;-70
2021/07/29 00:24:20;;;;;;;6.78;2.58;;;;;;;16.12;79.02;100823.84;4997358;28;20049;-70
2021/07/29 00:26:46;;;;;;;8.50;2.95;;;;;;;16.13;78.39;100825.44;4992498;28;20018;-72
2021/07/29 00:29:12;;;;;;;6.60;3.17;;;;;;;16.07;77.86;100817.56;4995263;28;20049;-70
2021/07/29 00:31:37;;;;;;;5.32;3.05;;;;;;;15.98;77.52;100829.16;4986833;28;20045;-70
2021/07/29 00:34:04;;;;;;;8.23;3.10;;;;;;;15.97;77.88;100825.72;4994039;28;20030;-71
2021/07/29 00:36:31;;;;;;;7.70;2.65;;;;;;;16.03;78.14;100822.38;4987621;28;20417;-70
2021/07/29 00:38:57;;;;;;;10.93;2.97;;;;;;;16.00;78.72;100829.78;4993690;28;20414;-70
2021/07/29 00:41:22;;;;;;;6.05;3.08;;;;;;;16.00;78.48;100820.13;4983522;28;20034;-70
2021/07/29 00:43:58;;;;;;;5.72;2.72;;;;;;;15.99;79.33;100825.53;4992633;28;20393;-70
2021/07/29 00:46:24;;;;;;;8.55;2.88;;;;;;;15.96;79.08;100809.25;4987111;28;20026;-70
2021/07/29 00:48:49;;;;;;;6.93;4.20;;;;;;;16.02;78.37;100807.66;4989459;28;20694;-70
2021/07/29 00:51:15;;;;;;;12.10;3.72;;;;;;;15.90;79.08;100806.59;4986132;28;20501;-70
2021/07/29 00:53:40;;;;;;;8.10;3.60;;;;;;;15.93;79.34;100804.38;4996082;28;20539;-70
2021/07/29 00:56:06;;;;;;;6.68;2.85;;;;;;;15.96;78.59;100798.78;4991018;28;20240;-70
2021/07/29 00:58:31;;;;;;;9.05;3.70;;;;;;;15.91;79.54;100789.88;4993768;28;20212;-71
2021/07/29 01:00:57;;;;;;;5.80;3.40;;;;;;;15.77;80.15;100792.41;4986664;28;20133;-71
2021/07/29 01:03:23;;;;;;;11.05;3.17;;;;;;;15.80;80.10;100791.22;4988328;28;20034;-70
2021/07/29 01:05:49;;;;;;;6.07;3.20;;;;;;;15.79;79.96;100788.81;4985135;28;20505;-70
2021/07/29 01:08:14;;;;;;;5.97;3.20;;;;;;;15.86;79.69;100793.09;4988749;28;20034;-70
2021/07/29 01:10:40;;;;;;;7.43;3.35;;;;;;;15.71;79.69;100793.16;4985436;28;20038;-70
2021/07/29 01:13:05;;;;;;;5.38;2.95;;;;;;;15.77;79.84;100789.00;5005566;28;20104;-71
2021/07/29 01:15:31;;;;;;;5.25;2.60;;;;;;;15.76;79.66;100785.59;4988078;28;20112;-69
2021/07/29 01:18:00;;;;;;;4.40;3.03;;;;;;;15.86;80.13;100784.41;4991894;28;20037;-70
2021/07/29 01:20:26;;;;;;;4.55;3.22;;;;;;;15.68;80.28;100782.25;4975306;28;20034;-70
2021/07/29 01:22:52;;;;;;;8.05;3.58;;;;;;;15.68;80.35;100788.28;4985037;28;20038;-70
2021/07/29 01:25:17;;;;;;;7.65;3.63;;;;;;;15.57;79.95;100783.59;4989661;28;20037;-70
2021/07/29 01:27:44;;;;;;;7.57;3.22;;;;;;;15.53;80.43;100783.16;4967264;28;20030;-71
2021/07/29 01:30:10;;;;;;;5.80;3.38;;;;;;;15.50;81.92;100772.25;4991716;28;20552;-71
2021/07/29 01:32:36;;;;;;;9.00;3.55;;;;;;;15.54;81.24;100781.38;4993523;28;20511;-70
2021/07/29 01:35:02;;;;;;;5.90;2.97;;;;;;;15.57;80.91;100773.94;4985685;28;20034;-70
2021/07/29 01:37:28;;;;;;;7.05;3.83;;;;;;;15.58;81.44;100779.97;4966426;28;20085;-69
2021/07/29 01:39:54;;;;;;;8.88;2.97;;;;;;;15.57;81.62;100787.00;4991459;28;20493;-70
2021/07/29 01:42:19;;;;;;;6.32;2.80;;;;;;;15.57;81.41;100779.16;4988201;28;20035;-70
2021/07/29 01:44:45;;;;;;;8.55;3.40;;;;;;;15.51;80.85;100779.91;4986562;28;20018;-70
2021/07/29 01:47:10;;;;;;;6.40;2.88;;;;;;;15.49;80.84;100773.28;4985837;28;20038;-71
2021/07/29 01:49:36;;;;;;;6.60;2.83;;;;;;;15.52;80.84;100780.72;4986501;28;20038;-70
2021/07/29 01:52:01;;;;;;;7.65;3.33;;;;;;;15.58;80.54;100785.22;4967529;28;20027;-71
2021/07/29 01:54:27;;;;;;;7.65;2.92;;;;;;;15.56;80.67;100782.78;4983596;28;20034;-70
2021/07/29 01:56:52;;;;;;;4.20;2.95;;;;;;;15.48;80.39;100777.69;4987410;28;20038;-70
2021/07/29 01:59:18;;;;;;;7.03;3.60;;;;;;;15.52;79.60;100776.31;4968872;28;20081;-70
2021/07/29 02:01:44;;;;;;;10.30;3.92;;;;;;;15.55;80.30;100773.31;4991653;28;20062;-70
2021/07/29 02:04:10;;;;;;;6.03;2.70;;;;;;;15.64;79.38;100767.97;4990740;28;20042;-70
2021/07/29 02:06:36;;;;;;;9.07;3.20;;;;;;;15.56;79.36;100766.31;4987175;28;20104;-70
2021/07/29 02:09:01;;;;;;;7.68;3.42;;;;;;;15.53;79.31;100775.31;4986206;28;20037;-70
2021/07/29 02:11:30;;;;;;;8.82;3.13;;;;;;;15.48;80.18;100777.69;4984880;28;20026;-71
2021/07/29 02:13:57;;;;;;;5.85;2.55;;;;;;;15.42;79.84;100778.44;4984878;28;20150;-70
2021/07/29 02:16:23;;;;;;;6.45;2.55;;;;;;;15.50;78.93;100780.94;4986038;28;20496;-70
2021/07/29 02:18:48;;;;;;;7.25;3.17;;;;;;;15.37;79.70;100783.44;4986714;28;20038;-70
2021/07/29 02:21:14;;;;;;;6.45;2.88;;;;;;;15.33;80.34;100782.16;4985929;28;20392;-71
2021/07/29 02:23:39;;;;;;;5.60;2.60;;;;;;;15.33;80.25;100787.41;4989399;28;20493;-70
2021/07/29 02:26:05;;;;;;;6.53;3.17;;;;;;;15.35;80.40;100783.63;4976999;28;20026;-70
2021/07/29 02:28:30;;;;;;;6.60;2.97;;;;;;;15.44;80.12;100789.50;4986421;28;20555;-70
2021/07/29 02:30:56;;;;;;;7.60;3.15;;;;;;;15.37;80.57;100799.91;4985525;28;20065;-70
2021/07/29 02:33:22;;;;;;;13.15;4.22;;;;;;;15.43;80.11;100795.75;4986914;28;20030;-70
2021/07/29 02:35:48;;;;;;;4.90;3.00;;;;;;;15.36;80.42;100798.28;4983780;28;20283;-70
2021/07/29 02:38:15;;;;;;;6.38;2.60;;;;;;;15.31;81.00;100803.28;4967568;28;20035;-70
2021/07/29 02:40:41;;;;;;;8.35;3.03;;;;;;;15.32;80.84;100796.25;4990064;28;20030;-70
2021/07/29 02:43:06;;;;;;;7.45;3.15;;;;;;;15.29;80.81;100804.44;4985152;28;20108;-70
2021/07/29 02:45:32;;;;;;;7.03;2.95;;;;;;;15.24;80.31;100805.00;4987246;28;20026;-70
2021/07/29 02:47:58;;;;;;;8.82;2.78;;;;;;;15.22;80.77;100808.78;4957368;28;20576;-70
2021/07/29 02:50:23;;;;;;;7.05;2.72;;;;;;;15.36;80.70;100805.31;4991685;28;20041;-70
2021/07/29 02:52:49;;;;;;;9.00;3.58;;;;;;;15.22;81.23;100804.41;4994176;28;20468;-71
2021/07/29 02:55:15;;;;;;;6.38;3.08;;;;;;;15.23;80.43;100803.38;4988974;28;20404;-70
2021/07/29 02:57:40;;;;;;;10.15;3.22;;;;;;;15.14;81.02;100805.31;4990705;28;20114;-70
2021/07/29 03:00:06;;;;;;;6.60;3.20;;;;;;;15.14;81.25;100805.31;4995027;28;20038;-71
2021/07/29 03:02:31;;;;;;;5.13;2.90;;;;;;;15.22;81.13;100798.34;4991479;28;20030;-70
2021/07/29 03:04:57;;;;;;;9.20;3.00;;;;;;;15.16;80.58;100798.13;4990102;28;20335;-70
2021/07/29 03:07:22;;;;;;;7.35;2.80;;;;;;;15.29;80.55;100794.78;4995587;28;20037;-71
2021/07/29 03:09:48;;;;;;;8.50;3.25;;;;;;;15.32;80.43;100789.22;4986067;28;20034;-71
2021/07/29 03:12:13;;;;;;;4.93;2.92;;;;;;;15.24;80.46;100797.19;4988556;28;20038;-71
2021/07/29 03:14:40;;;;;;;8.40;3.72;;;;;;;15.26;80.58;100792.56;4987650;28;20030;-71
2021/07/29 03:17:05;;;;;;;7.35;2.70;;;;;;;15.21;80.72;100802.75;4988043;28;20104;-70
2021/07/29 03:19:31;;;;;;;10.32;3.67;;;;;;;15.19;80.70;100795.13;4968199;28;20176;-70
2021/07/29 03:21:56;;;;;;;9.73;3.10;;;;;;;15.19;80.93;100800.34;4989769;28;20045;-71
2021/07/29 03:24:22;;;;;;;5.35;3.20;;;;;;;15.21;80.92;100801.97;4989570;28;20343;-71
2021/07/29 03:26:47;;;;;;;12.00;3.70;;;;;;;15.30;80.87;100806.06;4987036;28;20035;-70
2021/07/29 03:29:14;;;;;;;11.15;3.90;;;;;;;15.41;80.41;100802.97;4995133;28;20312;-70
2021/07/29 03:31:40;;;;;;;10.20;3.03;;;;;;;15.47;79.92;100796.97;4989522;28;20038;-70
2021/07/29 03:34:05;;;;;;;6.88;3.25;;;;;;;15.37;79.65;100799.91;4996149;28;20084;-70
2021/07/29 03:36:31;;;;;;;9.10;3.40;;;;;;;15.34;80.08;100807.31;4988633;28;20397;-71
2021/07/29 03:38:56;;;;;;;19.98;3.78;;;;;;;15.37;79.93;100804.34;4988534;28;20046;-70
2021/07/29 03:41:22;;;;;;;9.70;3.65;;;;;;;15.29;80.57;100807.84;4988564;28;20112;-70
2021/07/29 03:43:47;;;;;;;7.10;3.22;;;;;;;15.21;80.17;100805.38;4996952;28;20037;-70
2021/07/29 03:46:13;;;;;;;6.28;2.75;;;;;;;15.26;79.95;100799.59;4987400;28;20030;-71
2021/07/29 03:48:38;;;;;;;10.05;3.22;;;;;;;15.26;79.41;100800.41;4988452;28;20511;-71
2021/07/29 03:51:03;;;;;;;5.55;3.10;;;;;;;15.18;80.03;100803.97;4988468;28;20042;-70
2021/07/29 03:53:29;;;;;;;8.13;3.00;;;;;;;15.31;79.23;100799.84;4989565;28;20033;-70
2021/07/29 03:55:55;;;;;;;5.68;2.85;;;;;;;15.33;79.36;100806.50;4990605;28;20458;-71
2021/07/29 03:58:20;;;;;;;8.90;2.85;;;;;;;15.28;79.28;100813.28;4967973;28;20409;-70
2021/07/29 04:00:45;;;;;;;16.88;3.90;;;;;;;15.28;79.59;100811.47;4965037;28;20035;-70
2021/07/29 04:03:11;;;;;;;10.38;3.15;;;;;;;15.26;79.75;100810.06;4986979;28;20104;-71
2021/07/29 04:05:37;;;;;;;8.77;2.50;;;;;;;15.19;79.40;100807.38;4972608;28;20041;-70
2021/07/29 04:08:03;;;;;;;10.18;4.00;;;;;;;15.19;79.03;100807.38;4986449;28;20034;-69
2021/07/29 04:10:29;;;;;;;12.32;3.28;;;;;;;15.15;78.88;100804.31;4987876;28;20411;-70
2021/07/29 04:12:54;;;;;;;5.03;1.92;;;;;;;15.12;79.34;100820.34;4987053;28;20027;-70
2021/07/29 04:15:20;;;;;;;7.03;2.58;;;;;;;15.23;78.53;100818.25;4986303;28;20089;-70
2021/07/29 04:17:45;;;;;;;9.73;2.92;;;;;;;15.19;78.31;100817.81;4965273;28;20035;-70
2021/07/29 04:20:11;;;;;;;7.80;2.85;;;;;;;15.14;78.12;100821.00;4989361;28;20491;-70
2021/07/29 04:22:36;;;;;;;10.50;3.17;;;;;;;15.09;77.56;100817.31;4990686;28;20035;-70
2021/07/29 04:25:02;;;;;;;8.27;2.63;;;;;;;15.21;77.79;100820.25;4987708;28;20551;-70
2021/07/29 04:27:28;;;;;;;6.28;2.10;;;;;;;15.10;77.43;100827.56;4987182;28;20037;-69
2021/07/29 04:29:53;;;;;;;9.43;2.28;;;;;;;15.09;77.81;100836.41;4989321;28;20073;-70
2021/07/29 04:32:22;;;;;;;6.68;2.20;;;;;;;15.17;77.46;100832.88;4986149;28;20030;-69
2021/07/29 04:34:48;;;;;;;6.25;2.10;;;;;;;15.11;77.43;100831.81;4987813;28;20023;-69
2021/07/29 04:37:14;;;;;;;5.55;2.08;;;;;;;15.19;77.32;100834.28;4985874;28;20042;-70
2021/07/29 04:39:42;;;;;;;11.70;2.28;;;;;;;15.24;76.82;100835.53;4976039;28;20025;-69
2021/07/29 04:42:11;;;;;;;22.42;2.97;;;;;;;15.18;76.94;100834.47;4986148;28;20041;-69
2021/07/29 04:44:37;;;;;;;5.78;2.25;;;;;;;15.19;76.23;100841.31;4992018;28;20034;-70
2021/07/29 04:47:03;;;;;;;10.70;3.15;;;;;;;15.12;76.45;100840.44;4991671;28;20026;-70
2021/07/29 04:49:29;;;;;;;5.30;2.20;;;;;;;15.23;76.83;100836.53;4994672;28;20077;-70
2021/07/29 04:51:54;;;;;;;11.93;3.05;;;;;;;15.12;76.97;100848.28;4996599;28;20443;-71
2021/07/29 04:54:20;;;;;;;10.13;2.13;;;;;;;15.16;76.45;100842.50;4995162;28;20034;-70
2021/07/29 04:56:45;;;;;;;7.93;2.10;;;;;;;15.15;76.86;100835.66;4996260;28;20018;-69
2021/07/29 04:59:11;;;;;;;11.95;2.53;;;;;;;15.25;76.41;100837.97;4991134;28;20096;-69
2021/07/29 05:01:37;;;;;;;6.07;2.28;;;;;;;15.26;75.78;100842.19;4987294;28;20424;-69
2021/07/29 05:04:03;;;;;;;10.27;2.60;;;;;;;15.24;76.64;100836.34;4984881;28;20493;-69
2021/07/29 05:06:28;;;;;;;7.32;2.50;;;;;;;15.22;76.00;100838.34;4994433;28;20034;-69
2021/07/29 05:08:54;;;;;;;15.52;3.25;;;;;;;15.22;76.14;100847.97;4990379;28;20045;-70
2021/07/29 05:11:19;;;;;;;7.95;3.25;;;;;;;15.28;76.20;100844.63;4993301;28;20069;-70
2021/07/29 05:13:45;;;;;;;14.70;2.70;;;;;;;15.47;75.89;100846.63;4983420;28;20085;-69
2021/07/29 05:16:10;;;;;;;9.63;2.45;;;;;;;15.40;75.58;100832.69;4987507;28;20120;-69
2021/07/29 05:18:36;;;;;;;5.75;2.47;;;;;;;15.40;75.08;100847.56;4988651;28;20022;-70
2021/07/29 05:21:04;;;;;;;8.20;2.05;;;;;;;15.47;75.01;100849.22;4997119;28;20034;-71
2021/07/29 05:23:30;;;;;;;4.32;2.08;;;;;;;15.47;74.94;100849.22;4986998;28;20057;-70
2021/07/29 05:25:55;;;;;;;9.90;2.00;;;;;;;15.48;75.07;100847.41;4986841;28;20085;-70
2021/07/29 05:28:21;;;;;;;13.43;3.25;;;;;;;15.48;74.85;100843.03;4967977;28;20258;-67
2021/07/29 05:30:46;;;;;;;5.60;1.95;;;;;;;15.58;74.09;100842.72;4987426;28;20038;-67
2021/07/29 05:33:12;;;;;;;4.30;2.65;;;;;;;15.60;73.83;100848.56;4983531;28;20104;-67
2021/07/29 05:35:38;;;;;;;9.38;2.78;;;;;;;15.74;73.48;100845.06;4985867;28;20050;-67
2021/07/29 05:38:04;;;;;;;11.00;2.53;;;;;;;15.70;74.31;100841.19;4987420;28;20038;-67
2021/07/29 05:40:29;;;;;;;9.07;2.67;;;;;;;15.82;73.44;100845.94;4985779;28;20034;-67
2021/07/29 05:42:55;;;;;;;12.05;2.20;;;;;;;15.88;73.11;100853.00;4988002;28;20057;-67
2021/07/29 05:45:20;;;;;;;8.52;3.22;;;;;;;16.02;72.92;100846.09;4990127;28;20038;-68
2021/07/29 05:47:46;;;;;;;9.55;2.30;;;;;;;15.84;72.81;100847.38;4989668;28;20034;-68
2021/07/29 05:50:11;;;;;;;8.52;3.08;;;;;;;15.98;72.15;100850.09;4990341;28;20022;-67
2021/07/29 05:52:37;;;;;;;13.50;2.50;;;;;;;15.96;72.50;100863.34;4985747;28;20038;-68
2021/07/29 05:55:04;;;;;;;6.70;1.95;;;;;;;15.99;71.86;100868.19;4985581;28;20049;-67
2021/07/29 05:57:29;;;;;;;15.05;1.90;;;;;;;16.28;71.12;100859.34;4988248;28;20023;-67
2021/07/29 05:59:55;;;;;;;6.78;2.20;;;;;;;16.48;70.12;100869.09;4992346;28;20061;-67
2021/07/29 06:02:20;;;;;;;10.15;1.85;;;;;;;16.52;70.03;100870.34;4989091;28;20029;-67
2021/07/29 06:04:46;;;;;;;9.60;2.08;;;;;;;16.67;69.09;100875.44;4988812;28;20116;-67
2021/07/29 06:07:11;;;;;;;9.48;2.05;;;;;;;16.63;69.74;100864.56;4993950;28;20266;-67
2021/07/29 06:09:37;;;;;;;6.93;2.25;;;;;;;16.73;69.74;100870.25;4985479;28;20038;-67
2021/07/29 06:12:03;;;;;;;11.35;2.70;;;;;;;17.00;68.59;100872.19;4988164;28;20030;-67
2021/07/29 06:14:28;;;;;;;14.88;2.30;;;;;;;16.96;68.46;100874.41;4987735;28;20026;-68
2021/07/29 06:16:54;;;;;;;13.45;2.25;;;;;;;16.77;67.54;100875.91;4987811;28;20404;-67
2021/07/29 06:19:29;;;;;;;16.55;2.60;;;;;;;16.56;69.33;100866.34;4989526;28;20038;-68
2021/07/29 06:21:59;;;;;;;5.70;1.90;;;;;;;16.62;69.56;100865.56;4985433;28;20062;-68
2021/07/29 06:24:27;;;;;;;13.80;2.90;;;;;;;16.86;69.00;100866.13;4988234;28;20034;-68
2021/07/29 06:26:53;;;;;;;9.95;2.22;;;;;;;17.33;67.10;100869.69;4988175;28;20030;-68
2021/07/29 06:29:20;;;;;;;13.32;3.00;;;;;;;17.42;66.18;100865.84;4991238;28;20022;-68
2021/07/29 06:31:45;;;;;;;6.90;2.20;;;;;;;17.10;67.40;100867.38;4991473;28;20076;-67
2021/07/29 06:34:11;;;;;;;6.95;1.95;;;;;;;17.24;66.44;100874.28;4989398;28;20485;-68
2021/07/29 06:36:37;;;;;;;12.63;2.58;;;;;;;17.43;65.42;100866.66;4991629;28;20038;-66
2021/07/29 06:39:03;;;;;;;8.45;1.67;;;;;;;17.81;64.64;100877.38;4992518;28;20034;-68
2021/07/29 06:41:29;;;;;;;6.72;1.58;;;;;;;18.23;63.07;100879.78;4991425;28;20317;-67
2021/07/29 06:43:54;;;;;;;6.57;1.90;;;;;;;18.46;62.45;100874.09;4977129;28;20393;-67
2021/07/29 06:46:20;;;;;;;12.18;2.33;;;;;;;18.35;62.63;100891.28;4992082;28;20061;-67
2021/07/29 06:48:48;;;;;;;25.70;2.45;;;;;;;18.44;62.74;100882.19;4989207;28;20185;-67
2021/07/29 06:51:13;;;;;;;13.20;1.92;;;;;;;18.68;61.16;100896.47;4989486;28;20061;-67
2021/07/29 06:53:39;;;;;;;11.05;2.65;;;;;;;18.84;60.14;100892.56;4985420;28;20030;-68
2021/07/29 06:56:05;;;;;;;6.93;1.70;;;;;;;18.76;60.41;100894.59;4993191;28;20034;-68
2021/07/29 06:58:31;;;;;;;12.05;3.10;;;;;;;18.53;61.80;100901.13;4989777;28;20038;-68
2021/07/29 07:01:04;;;;;;;6.05;1.90;;;;;;;18.44;60.93;100891.84;4983071;28;20042;-68
2021/07/29 07:03:30;;;;;;;8.93;1.67;;;;;;;18.46;60.39;100898.53;4989267;28;20093;-66
2021/07/29 07:06:03;;;;;;;8.10;2.42;;;;;;;18.75;59.60;100906.13;4995234;28;20241;-67
2021/07/29 07:08:29;;;;;;;;;;;;;;;18.37;61.07;100909.47;4991127;28;20058;-68
2021/07/29 07:10:55;;;;;;;6.68;1.40;;;;;;;18.32;60.83;100901.38;4990402;28;20526;-68
2021/07/29 07:13:20;;;;;;;13.40;2.00;;;;;;;18.24;59.50;100913.69;4989532;28;20030;-67
2021/07/29 07:15:46;;;;;;;9.27;2.42;;;;;;;18.05;60.47;100917.97;4987965;28;20404;-68
2021/07/29 07:18:11;;;;;;;9.07;1.83;;;;;;;18.51;59.82;100928.59;4992443;28;20057;-68
2021/07/29 07:20:36;;;;;;;7.70;2.38;;;;;;;18.04;60.66;100924.19;4963006;28;20408;-67
2021/07/29 07:23:02;;;;;;;5.70;2.00;;;;;;;17.83;61.30;100927.00;4987526;28;20121;-67
2021/07/29 07:25:28;;;;;;;7.50;1.85;;;;;;;17.67;61.81;100936.06;4989025;28;20030;-67
2021/07/29 07:27:53;;;;;;;7.85;1.83;;;;;;;17.61;62.62;100935.06;4991129;28;20034;-68
2021/07/29 07:30:19;;;;;;;6.18;1.75;;;;;;;17.91;61.22;100926.81;4994834;28;20034;-68
2021/07/29 07:32:44;;;;;;;6.22;1.63;;;;;;;18.00;61.88;100935.31;4989578;28;20129;-67
2021/07/29 07:35:10;;;;;;;9.85;1.70;;;;;;;18.13;61.29;100935.31;4986465;28;20026;-68
2021/07/29 07:37:36;;;;;;;8.48;2.80;;;;;;;18.56;60.83;100931.44;4989782;28;20045;-68
2021/07/29 07:40:02;;;;;;;13.25;2.30;;;;;;;18.51;59.64;100936.47;4988542;28;20101;-67
2021/07/29 07:42:27;;;;;;;6.85;1.60;;;;;;;18.48;60.41;100946.38;4988099;28;20034;-67
2021/07/29 07:44:55;;;;;;;6.97;1.85;;;;;;;18.12;60.03;100938.97;4991342;28;20041;-68
2021/07/29 07:47:20;;;;;;;8.27;2.00;;;;;;;18.39;61.58;100944.19;4996286;28;20484;-67
2021/07/29 07:49:46;;;;;;;8.85;1.70;;;;;;;19.44;58.28;100938.78;4991749;28;20058;-68
2021/07/29 07:52:11;;;;;;;7.22;2.03;;;;;;;20.18;56.39;100937.25;4989713;28;20393;-67
2021/07/29 07:54:37;;;;;;;5.72;1.58;;;;;;;20.98;53.24;100936.47;4991543;28;20033;-67
2021/07/29 07:57:05;;;;;;;9.52;2.10;;;;;;;20.94;52.13;100932.63;4997875;28;20405;-68
2021/07/29 07:59:38;;;;;;;10.02;1.92;;;;;;;21.62;51.84;100932.56;4971383;28;20053;-67
2021/07/29 08:02:04;;;;;;;6.85;1.52;;;;;;;21.87;50.00;100929.75;4981497;28;20030;-68
2021/07/29 08:04:30;;;;;;;11.75;1.80;;;;;;;21.96;50.48;100926.56;4993018;28;20077;-68
2021/07/29 08:06:56;;;;;;;9.57;1.60;;;;;;;21.66;50.85;100931.91;4995295;28;20436;-68
2021/07/29 08:09:21;;;;;;;11.77;1.80;;;;;;;22.15;50.23;100923.78;4988414;28;20497;-68
2021/07/29 08:11:47;;;;;;;12.02;1.45;;;;;;;22.30;49.53;100918.06;4990534;28;20022;-68
2021/07/29 08:14:12;;;;;;;7.65;1.38;;;;;;;22.53;46.25;100912.78;4995690;28;20045;-68
2021/07/29 08:16:38;;;;;;;6.72;1.65;;;;;;;22.61;47.18;100922.19;4993408;28;20026;-68
2021/07/29 08:19:04;;;;;;;4.65;1.63;;;;;;;23.01;47.26;100933.78;4990618;28;20523;-68
2021/07/29 08:21:29;;;;;;;9.77;1.42;;;;;;;22.89;44.93;100913.47;4992608;28;20519;-68
2021/07/29 08:23:55;;;;;;;4.55;1.63;;;;;;;22.70;45.99;100920.78;4987793;28;20559;-68
2021/07/29 08:26:20;;;;;;;8.38;1.50;;;;;;;23.06;45.18;100916.22;4992085;28;20512;-67
2021/07/29 08:28:46;;;;;;;10.20;1.60;;;;;;;23.03;47.19;100919.31;4994187;28;20070;-68
2021/07/29 08:31:13;;;;;;;9.98;1.50;;;;;;;22.65;47.19;100920.66;4990794;28;20408;-68
2021/07/29 08:33:40;;;;;;;5.80;1.30;;;;;;;22.37;47.75;100921.41;4986790;28;20041;-68
2021/07/29 08:36:14;;;;;;;9.40;1.75;;;;;;;22.37;46.20;100917.97;4985837;28;20440;-68
2021/07/29 08:38:41;;;;;;;7.95;1.63;;;;;;;22.33;48.10;100913.13;4979261;28;20535;-68
2021/07/29 08:41:07;;;;;;;5.05;1.75;;;;;;;22.87;46.87;100918.22;4991904;28;20046;-67
2021/07/29 08:43:34;;;;;;;4.72;1.60;;;;;;;22.96;46.73;100912.53;4997567;28;20119;-68
2021/07/29 08:45:59;;;;;;;8.60;1.75;;;;;;;22.99;46.96;100918.16;4990075;28;20367;-67
2021/07/29 08:48:26;;;;;;;6.95;1.60;;;;;;;23.55;45.01;100909.66;4989954;28;20173;-68
2021/07/29 08:50:53;;;;;;;5.85;1.30;;;;;;;23.76;43.72;100910.78;4981132;28;20090;-67
2021/07/29 08:53:19;;;;;;;6.55;1.42;;;;;;;23.57;45.86;100910.22;4985827;28;20046;-68
2021/07/29 08:55:53;;;;;;;4.68;1.13;;;;;;;23.98;44.47;100916.97;4988261;28;20043;-68
2021/07/29 08:58:20;;;;;;;5.50;1.13;;;;;;;23.61;44.40;100919.28;4969449;28;20034;-67
2021/07/29 09:01:02;;;;;;;5.15;1.35;;;;;;;22.97;44.25;100925.53;4986966;28;20259;-68
2021/07/29 09:03:28;;;;;;;3.97;1.63;;;;;;;22.82;47.26;100923.38;4986211;28;20065;-68
2021/07/29 09:06:09;;;;;;;6.55;1.85;;;;;;;22.15;49.38;100929.91;4986109;28;20030;-68
2021/07/29 09:08:47;;;;;;;5.93;1.80;;;;;;;21.73;46.01;100937.88;4981432;28;20038;-68
2021/07/29 09:11:25;;;;;;;8.98;1.65;;;;;;;21.69;46.85;100936.72;4981830;28;20439;-68
2021/07/29 09:14:07;;;;;;;9.52;1.95;;;;;;;21.48;47.72;100929.34;4969515;28;20052;-68
2021/07/29 09:16:39;;;;;;;5.10;1.57;;;;;;;21.77;47.12;100932.94;4990043;28;20030;-68
2021/07/29 09:19:05;;;;;;;10.25;1.85;;;;;;;21.72;49.39;100932.84;4978308;28;20454;-69
2021/07/29 09:21:31;;;;;;;5.65;1.30;;;;;;;21.80;47.69;100937.78;4972177;28;20038;-68
2021/07/29 09:24:08;;;;;;;6.50;2.00;;;;;;;21.69;47.62;100946.47;4977250;28;20046;-67
2021/07/29 09:26:57;;;;;;;9.57;1.63;;;;;;;21.70;46.87;100935.69;4985587;28;20177;-68
2021/07/29 09:29:27;;;;;;;7.70;1.50;;;;;;;22.39;47.05;100935.19;4991642;28;20089;-67
2021/07/29 09:32:09;;;;;;;10.00;2.15;;;;;;;22.88;44.56;100927.72;4986886;28;20066;-68
2021/07/29 09:35:01;;;;;;;8.73;1.48;;;;;;;23.17;43.04;100937.53;4994337;28;20030;-68
2021/07/29 09:37:27;;;;;;;7.95;2.47;;;;;;;22.96;43.61;100939.78;4993667;28;20387;-69
2021/07/29 09:40:00;;;;;;;11.68;1.52;;;;;;;23.10;44.58;100932.41;4986805;28;20429;-68
2021/07/29 09:42:26;;;;;;;6.38;1.60;;;;;;;23.04;44.40;100930.72;4987197;28;20109;-69
2021/07/29 09:44:54;;;;;;;7.80;1.50;;;;;;;22.77;42.51;100933.06;4986504;28;20080;-68
2021/07/29 09:47:21;;;;;;;6.78;1.70;;;;;;;22.93;44.37;100935.75;4992013;28;20445;-69
2021/07/29 09:49:48;;;;;;;4.75;1.35;;;;;;;22.44;45.08;100937.16;4989409;28;20042;-68
2021/07/29 09:52:14;;;;;;;6.57;2.33;;;;;;;22.09;44.82;100943.19;4991230;28;20069;-68
2021/07/29 09:54:46;;;;;;;5.40;1.27;;;;;;;22.33;45.76;100942.19;4990422;28;20030;-68
2021/07/29 09:57:12;;;;;;;6.50;1.80;;;;;;;22.75;44.32;100946.50;4984521;28;20034;-69
2021/07/29 09:59:38;;;;;;;7.50;1.90;;;;;;;23.16;45.48;100949.19;4970921;28;20462;-68
2021/07/29 10:02:05;;;;;;;5.03;1.60;;;;;;;23.08;44.01;100953.00;4991113;28;20076;-68
2021/07/29 10:04:42;;;;;;;6.25;1.52;;;;;;;23.07;43.69;100949.53;4986908;28;20046;-69
2021/07/29 10:07:16;;;;;;;5.38;1.55;;;;;;;23.36;45.39;100954.03;4996463;28;20030;-69
2021/07/29 10:09:45;;;;;;;7.13;1.45;;;;;;;23.38;42.92;100939.53;4982959;28;20027;-68
2021/07/29 10:12:18;;;;;;;6.72;2.20;;;;;;;22.86;42.64;100944.88;4988354;28;20026;-68
2021/07/29 10:14:54;;;;;;;7.63;1.50;;;;;;;22.95;43.25;100951.41;4987675;28;20117;-68
2021/07/29 10:17:35;;;;;;;5.68;2.15;;;;;;;23.09;43.57;100942.19;4991579;28;20037;-68
2021/07/29 10:20:16;;;;;;;7.72;1.83;;;;;;;23.09;43.76;100938.72;4988269;28;20033;-68
2021/07/29 10:22:44;;;;;;;6.72;1.63;;;;;;;23.29;43.76;100933.81;4990335;28;20057;-68
2021/07/29 10:25:10;;;;;;;9.13;2.10;;;;;;;23.35;43.62;100953.22;4987820;28;20038;-69
2021/07/29 10:27:36;;;;;;;5.78;1.77;;;;;;;23.30;42.65;100953.94;4986231;28;20026;-67
2021/07/29 10:30:36;;;;;;;6.70;1.73;;;;;;;22.96;42.95;100936.34;4982774;28;20136;-69
2021/07/29 10:33:17;;;;;;;6.28;1.92;;;;;;;22.64;44.65;100944.69;4942751;28;20112;-69
2021/07/29 10:35:42;;;;;;;6.85;1.88;;;;;;;22.50;42.89;100933.56;4981373;28;20096;-68
2021/07/29 10:38:08;;;;;;;5.38;1.60;;;;;;;22.73;44.08;100930.91;4983373;28;20480;-69
2021/07/29 10:40:42;;;;;;;7.40;1.52;;;;;;;23.12;42.46;100936.41;4979853;28;20077;-69
2021/07/29 10:43:29;;;;;;;10.80;1.63;;;;;;;23.16;44.34;100949.97;5002808;28;20069;-68
2021/07/29 10:45:57;;;;;;;7.57;1.65;;;;;;;22.80;44.06;100943.16;4989175;28;20118;-69
2021/07/29 10:48:41;;;;;;;6.18;1.40;;;;;;;23.23;42.65;100949.84;4989588;28;20440;-67
2021/07/29 10:51:18;;;;;;;5.43;1.80;;;;;;;23.42;42.81;100943.31;4992800;28;20081;-69
2021/07/29 10:53:48;;;;;;;2.40;1.30;;;;;;;23.41;42.31;100933.75;4988179;28;20581;-68
2021/07/29 10:56:15;;;;;;;9.57;2.30;;;;;;;23.64;44.26;100927.53;4994785;28;20098;-69
2021/07/29 10:58:42;;;;;;;5.57;1.80;;;;;;;24.07;42.92;100933.22;4989847;28;20073;-69
2021/07/29 11:01:12;;;;;;;6.10;1.98;;;;;;;23.97;43.61;100925.94;4985121;28;20041;-69
2021/07/29 11:03:46;;;;;;;4.93;1.52;;;;;;;23.73;43.04;100935.88;4966850;28;20221;-69
2021/07/29 11:06:23;;;;;;;4.43;1.40;;;;;;;23.78;39.68;100929.88;4990986;28;20033;-68
2021/07/29 11:08:49;;;;;;;4.72;1.52;;;;;;;23.71;40.46;100936.13;4993648;28;20038;-68
2021/07/29 11:11:15;;;;;;;6.40;1.98;;;;;;;23.70;41.41;100923.91;4986416;28;20319;-68
2021/07/29 11:13:45;;;;;;;6.40;1.88;;;;;;;23.44;42.48;100925.34;4989159;28;20429;-69
2021/07/29 11:16:12;;;;;;;5.68;1.52;;;;;;;23.40;42.05;100921.56;4991226;28;20038;-69
2021/07/29 11:18:38;;;;;;;3.00;1.45;;;;;;;23.60;41.51;100930.88;4988188;28;20041;-69
2021/07/29 11:21:15;;;;;;;5.38;1.27;;;;;;;23.43;41.23;100929.03;4993694;28;20043;-68
2021/07/29 11:23:42;;;;;;;10.60;1.80;;;;;;;23.46;43.07;100927.75;4987980;28;20033;-69
2021/07/29 11:26:07;;;;;;;10.57;1.63;;;;;;;23.79;41.42;100921.72;4993521;28;20034;-69